sensor_id;sensor_type;location;lat;lon;timestamp;temperature;humidity
18446;DHT22;9352;50.888;4.466;2022-08-21T00:00:06;18.40;99.90
18446;DHT22;9352;50.888;4.466;2022-08-21T00:02:33;18.40;99.90
18446;DHT22;9352;50.888;4.466;2022-08-21T00:05:00;18.40;99.90
18446;DHT22;9352;50.888;4.466;2022-08-21T00:07:29;18.30;99.90
18446;DHT22;9352;50.888;4.466;2022-08-21T00:09:56;18.30;99.90
18446;DHT22;9352;50.888;4.466;2022-08-21T00:12:23;18.30;99.90
18446;DHT22;9352;50.888;4.466;2022-08-21T00:14:51;18.20;99.90
18446;DHT22;9352;50.888;4.466;2022-08-21T00:17:18;18.20;99.90
18446;DHT22;9352;50.888;4.466;2022-08-21T00:19:44;18.20;99.90
18446;DHT22;9352;50.888;4.466;2022-08-21T00:22:11;18.10;99.90
18446;DHT22;9352;50.888;4.466;2022-08-21T00:24:40;18.10;99.90
18446;DHT22;9352;50.888;4.466;2022-08-21T00:27:07;18.10;99.90
18446;DHT22;9352;50.888;4.466;2022-08-21T00:29:34;18.10;99.90
18446;DHT22;9352;50.888;4.466;2022-08-21T00:32:02;18.10;99.90
18446;DHT22;9352;50.888;4.466;2022-08-21T00:34:28;18.10;99.90
18446;DHT22;9352;50.888;4.466;2022-08-21T00:36:55;18.10;99.90
18446;DHT22;9352;50.888;4.466;2022-08-21T00:39:25;18.00;99.90
18446;DHT22;9352;50.888;4.466;2022-08-21T00:41:53;18.00;99.90
18446;DHT22;9352;50.888;4.466;2022-08-21T00:44:20;18.00;99.90
18446;DHT22;9352;50.888;4.466;2022-08-21T00:46:47;17.90;99.90
18446;DHT22;9352;50.888;4.466;2022-08-21T00:49:14;17.90;99.90
18446;DHT22;9352;50.888;4.466;2022-08-21T00:51:45;17.90;99.90
18446;DHT22;9352;50.888;4.466;2022-08-21T00:54:15;17.90;99.90
18446;DHT22;9352;50.888;4.466;2022-08-21T00:56:43;17.80;99.90
18446;DHT22;9352;50.888;4.466;2022-08-21T00:59:12;17.80;99.90
18446;DHT22;9352;50.888;4.466;2022-08-21T01:01:39;17.70;99.90
18446;DHT22;9352;50.888;4.466;2022-08-21T01:04:06;17.70;99.90
18446;DHT22;9352;50.888;4.466;2022-08-21T01:06:33;17.70;99.90
18446;DHT22;9352;50.888;4.466;2022-08-21T01:09:00;17.70;99.90
18446;DHT22;9352;50.888;4.466;2022-08-21T01:11:27;17.60;99.90
18446;DHT22;9352;50.888;4.466;2022-08-21T01:13:54;17.60;99.90
18446;DHT22;9352;50.888;4.466;2022-08-21T01:16:23;17.60;99.90
18446;DHT22;9352;50.888;4.466;2022-08-21T01:18:50;17.50;99.90
18446;DHT22;9352;50.888;4.466;2022-08-21T01:21:21;17.50;99.90
18446;DHT22;9352;50.888;4.466;2022-08-21T01:23:50;17.40;99.90
18446;DHT22;9352;50.888;4.466;2022-08-21T01:26:20;17.40;99.90
18446;DHT22;9352;50.888;4.466;2022-08-21T01:28:54;17.40;99.90
18446;DHT22;9352;50.888;4.466;2022-08-21T01:31:24;17.40;99.90
18446;DHT22;9352;50.888;4.466;2022-08-21T01:33:51;17.30;99.90
18446;DHT22;9352;50.888;4.466;2022-08-21T01:36:20;17.30;99.90
18446;DHT22;9352;50.888;4.466;2022-08-21T01:38:47;17.30;99.90
18446;DHT22;9352;50.888;4.466;2022-08-21T01:41:15;17.20;99.90
18446;DHT22;9352;50.888;4.466;2022-08-21T01:43:42;17.20;99.90
18446;DHT22;9352;50.888;4.466;2022-08-21T01:46:10;17.20;99.90
18446;DHT22;9352;50.888;4.466;2022-08-21T01:48:38;17.20;99.90
18446;DHT22;9352;50.888;4.466;2022-08-21T01:51:05;17.20;99.90
18446;DHT22;9352;50.888;4.466;2022-08-21T01:53:34;17.20;99.90
18446;DHT22;9352;50.888;4.466;2022-08-21T01:56:03;17.10;99.90
18446;DHT22;9352;50.888;4.466;2022-08-21T01:58:31;17.10;99.90
18446;DHT22;9352;50.888;4.466;2022-08-21T02:00:59;17.10;99.90
18446;DHT22;9352;50.888;4.466;2022-08-21T02:03:27;17.10;99.90
18446;DHT22;9352;50.888;4.466;2022-08-21T02:05:53;17.10;99.90
18446;DHT22;9352;50.888;4.466;2022-08-21T02:08:20;17.00;99.90
18446;DHT22;9352;50.888;4.466;2022-08-21T02:10:50;17.00;99.90
18446;DHT22;9352;50.888;4.466;2022-08-21T02:13:18;17.00;99.90
18446;DHT22;9352;50.888;4.466;2022-08-21T02:15:45;17.00;99.90
18446;DHT22;9352;50.888;4.466;2022-08-21T02:18:12;17.00;99.90
18446;DHT22;9352;50.888;4.466;2022-08-21T02:20:42;17.00;99.90
18446;DHT22;9352;50.888;4.466;2022-08-21T02:23:12;17.00;99.90
18446;DHT22;9352;50.888;4.466;2022-08-21T02:25:39;17.00;99.90
18446;DHT22;9352;50.888;4.466;2022-08-21T02:28:11;16.90;99.90
18446;DHT22;9352;50.888;4.466;2022-08-21T02:30:42;16.90;99.90
18446;DHT22;9352;50.888;4.466;2022-08-21T02:33:10;16.90;99.90
18446;DHT22;9352;50.888;4.466;2022-08-21T02:35:37;16.90;99.90
18446;DHT22;9352;50.888;4.466;2022-08-21T02:38:06;16.80;99.90
18446;DHT22;9352;50.888;4.466;2022-08-21T02:40:39;16.80;99.90
18446;DHT22;9352;50.888;4.466;2022-08-21T02:43:08;16.70;99.90
18446;DHT22;9352;50.888;4.466;2022-08-21T02:45:36;16.60;99.90
18446;DHT22;9352;50.888;4.466;2022-08-21T02:48:05;16.60;99.90
18446;DHT22;9352;50.888;4.466;2022-08-21T02:50:34;16.50;99.90
18446;DHT22;9352;50.888;4.466;2022-08-21T02:53:02;16.50;99.90
18446;DHT22;9352;50.888;4.466;2022-08-21T02:55:31;16.40;99.90
18446;DHT22;9352;50.888;4.466;2022-08-21T02:57:59;16.40;99.90
18446;DHT22;9352;50.888;4.466;2022-08-21T03:00:29;16.40;99.90
18446;DHT22;9352;50.888;4.466;2022-08-21T03:02:57;16.30;99.90
18446;DHT22;9352;50.888;4.466;2022-08-21T03:05:25;16.30;99.90
18446;DHT22;9352;50.888;4.466;2022-08-21T03:07:53;16.30;99.90
18446;DHT22;9352;50.888;4.466;2022-08-21T03:10:22;16.20;99.90
18446;DHT22;9352;50.888;4.466;2022-08-21T03:12:48;16.20;99.90
18446;DHT22;9352;50.888;4.466;2022-08-21T03:15:17;16.20;99.90
18446;DHT22;9352;50.888;4.466;2022-08-21T03:17:47;16.20;99.90
18446;DHT22;9352;50.888;4.466;2022-08-21T03:20:16;16.10;99.90
18446;DHT22;9352;50.888;4.466;2022-08-21T03:22:43;16.10;99.90
18446;DHT22;9352;50.888;4.466;2022-08-21T03:25:10;16.00;99.90
18446;DHT22;9352;50.888;4.466;2022-08-21T03:27:37;16.10;99.90
18446;DHT22;9352;50.888;4.466;2022-08-21T03:30:06;16.00;99.90
18446;DHT22;9352;50.888;4.466;2022-08-21T03:32:34;16.00;99.90
18446;DHT22;9352;50.888;4.466;2022-08-21T03:35:04;15.90;99.90
18446;DHT22;9352;50.888;4.466;2022-08-21T03:37:31;15.90;99.90
18446;DHT22;9352;50.888;4.466;2022-08-21T03:39:58;15.90;99.90
18446;DHT22;9352;50.888;4.466;2022-08-21T03:42:25;15.90;99.90
18446;DHT22;9352;50.888;4.466;2022-08-21T03:44:52;15.90;99.90
18446;DHT22;9352;50.888;4.466;2022-08-21T03:47:19;15.80;99.90
18446;DHT22;9352;50.888;4.466;2022-08-21T03:49:47;15.80;99.90
18446;DHT22;9352;50.888;4.466;2022-08-21T03:52:16;15.70;99.90
18446;DHT22;9352;50.888;4.466;2022-08-21T03:54:43;15.70;99.90
18446;DHT22;9352;50.888;4.466;2022-08-21T03:57:10;15.70;99.90
18446;DHT22;9352;50.888;4.466;2022-08-21T03:59:37;15.70;99.90
18446;DHT22;9352;50.888;4.466;2022-08-21T04:02:06;15.70;99.90
18446;DHT22;9352;50.888;4.466;2022-08-21T04:04:34;15.60;99.90
18446;DHT22;9352;50.888;4.466;2022-08-21T04:07:01;15.70;99.90
18446;DHT22;9352;50.888;4.466;2022-08-21T04:09:30;15.60;99.90
18446;DHT22;9352;50.888;4.466;2022-08-21T04:11:57;15.60;99.90
18446;DHT22;9352;50.888;4.466;2022-08-21T04:14:25;15.60;99.90
18446;DHT22;9352;50.888;4.466;2022-08-21T04:16:52;15.60;99.90
18446;DHT22;9352;50.888;4.466;2022-08-21T04:19:18;15.60;99.90
18446;DHT22;9352;50.888;4.466;2022-08-21T04:21:46;15.60;99.90
18446;DHT22;9352;50.888;4.466;2022-08-21T04:24:12;15.50;99.90
18446;DHT22;9352;50.888;4.466;2022-08-21T04:26:41;15.50;99.90
18446;DHT22;9352;50.888;4.466;2022-08-21T04:29:07;15.50;99.90
18446;DHT22;9352;50.888;4.466;2022-08-21T04:31:35;15.50;99.90
18446;DHT22;9352;50.888;4.466;2022-08-21T04:34:03;15.50;99.90
18446;DHT22;9352;50.888;4.466;2022-08-21T04:36:31;15.40;99.90
18446;DHT22;9352;50.888;4.466;2022-08-21T04:38:58;15.50;99.90
18446;DHT22;9352;50.888;4.466;2022-08-21T04:41:25;15.50;99.90
18446;DHT22;9352;50.888;4.466;2022-08-21T04:43:53;15.50;99.90
18446;DHT22;9352;50.888;4.466;2022-08-21T04:46:21;15.50;99.90
18446;DHT22;9352;50.888;4.466;2022-08-21T04:48:47;15.50;99.90
18446;DHT22;9352;50.888;4.466;2022-08-21T04:51:17;15.40;99.90
18446;DHT22;9352;50.888;4.466;2022-08-21T04:53:48;15.40;99.90
18446;DHT22;9352;50.888;4.466;2022-08-21T04:56:20;15.50;99.90
18446;DHT22;9352;50.888;4.466;2022-08-21T04:58:47;15.50;99.90
18446;DHT22;9352;50.888;4.466;2022-08-21T05:01:21;15.50;99.90
18446;DHT22;9352;50.888;4.466;2022-08-21T05:03:51;15.50;99.90
18446;DHT22;9352;50.888;4.466;2022-08-21T05:06:19;15.50;99.90
18446;DHT22;9352;50.888;4.466;2022-08-21T05:08:47;15.50;99.90
18446;DHT22;9352;50.888;4.466;2022-08-21T05:11:15;15.50;99.90
18446;DHT22;9352;50.888;4.466;2022-08-21T05:13:42;15.50;99.90
18446;DHT22;9352;50.888;4.466;2022-08-21T05:16:09;15.60;99.90
18446;DHT22;9352;50.888;4.466;2022-08-21T05:18:37;15.60;99.90
18446;DHT22;9352;50.888;4.466;2022-08-21T05:21:04;15.60;99.90
18446;DHT22;9352;50.888;4.466;2022-08-21T05:23:31;15.60;99.90
18446;DHT22;9352;50.888;4.466;2022-08-21T05:25:59;15.70;99.90
18446;DHT22;9352;50.888;4.466;2022-08-21T05:28:26;15.70;99.90
18446;DHT22;9352;50.888;4.466;2022-08-21T05:30:53;15.70;99.90
18446;DHT22;9352;50.888;4.466;2022-08-21T05:33:20;15.80;99.90
18446;DHT22;9352;50.888;4.466;2022-08-21T05:35:51;15.80;99.90
18446;DHT22;9352;50.888;4.466;2022-08-21T05:38:18;15.90;99.90
18446;DHT22;9352;50.888;4.466;2022-08-21T05:40:46;15.90;99.90
18446;DHT22;9352;50.888;4.466;2022-08-21T05:43:15;16.00;99.90
18446;DHT22;9352;50.888;4.466;2022-08-21T05:45:42;16.00;99.90
18446;DHT22;9352;50.888;4.466;2022-08-21T05:48:12;16.10;99.90
18446;DHT22;9352;50.888;4.466;2022-08-21T05:50:39;16.10;99.90
18446;DHT22;9352;50.888;4.466;2022-08-21T05:53:08;16.20;99.90
18446;DHT22;9352;50.888;4.466;2022-08-21T05:55:37;16.20;99.90
18446;DHT22;9352;50.888;4.466;2022-08-21T05:58:04;16.30;99.90
18446;DHT22;9352;50.888;4.466;2022-08-21T06:00:31;16.30;99.90
18446;DHT22;9352;50.888;4.466;2022-08-21T06:02:59;16.40;99.90
18446;DHT22;9352;50.888;4.466;2022-08-21T06:05:26;16.50;99.90
18446;DHT22;9352;50.888;4.466;2022-08-21T06:07:53;16.50;99.90
18446;DHT22;9352;50.888;4.466;2022-08-21T06:10:21;16.60;99.90
18446;DHT22;9352;50.888;4.466;2022-08-21T06:12:52;16.70;99.90
18446;DHT22;9352;50.888;4.466;2022-08-21T06:15:20;16.80;99.90
18446;DHT22;9352;50.888;4.466;2022-08-21T06:17:46;16.90;99.90
18446;DHT22;9352;50.888;4.466;2022-08-21T06:20:13;17.00;99.90
18446;DHT22;9352;50.888;4.466;2022-08-21T06:22:40;17.10;99.90
18446;DHT22;9352;50.888;4.466;2022-08-21T06:25:08;17.20;99.90
18446;DHT22;9352;50.888;4.466;2022-08-21T06:27:37;17.20;99.90
18446;DHT22;9352;50.888;4.466;2022-08-21T06:30:06;17.30;99.90
18446;DHT22;9352;50.888;4.466;2022-08-21T06:32:33;17.40;99.90
18446;DHT22;9352;50.888;4.466;2022-08-21T06:35:00;17.50;99.90
18446;DHT22;9352;50.888;4.466;2022-08-21T06:37:27;17.60;99.90
18446;DHT22;9352;50.888;4.466;2022-08-21T06:39:54;17.80;99.90
18446;DHT22;9352;50.888;4.466;2022-08-21T06:42:21;17.90;99.90
18446;DHT22;9352;50.888;4.466;2022-08-21T06:44:52;18.00;99.90
18446;DHT22;9352;50.888;4.466;2022-08-21T06:47:18;18.10;99.90
18446;DHT22;9352;50.888;4.466;2022-08-21T06:49:45;18.20;99.90
18446;DHT22;9352;50.888;4.466;2022-08-21T06:52:13;18.30;99.90
18446;DHT22;9352;50.888;4.466;2022-08-21T06:54:40;18.40;99.90
18446;DHT22;9352;50.888;4.466;2022-08-21T06:57:07;18.50;99.90
18446;DHT22;9352;50.888;4.466;2022-08-21T06:59:34;18.60;99.90
18446;DHT22;9352;50.888;4.466;2022-08-21T07:02:03;18.70;99.90
18446;DHT22;9352;50.888;4.466;2022-08-21T07:04:30;18.80;99.90
18446;DHT22;9352;50.888;4.466;2022-08-21T07:06:57;18.90;99.90
18446;DHT22;9352;50.888;4.466;2022-08-21T07:09:24;18.90;99.90
18446;DHT22;9352;50.888;4.466;2022-08-21T07:11:53;19.00;99.90
18446;DHT22;9352;50.888;4.466;2022-08-21T07:14:20;19.10;99.90
18446;DHT22;9352;50.888;4.466;2022-08-21T07:16:47;19.20;99.90
18446;DHT22;9352;50.888;4.466;2022-08-21T07:19:15;19.30;99.90
18446;DHT22;9352;50.888;4.466;2022-08-21T07:21:42;19.40;99.90
18446;DHT22;9352;50.888;4.466;2022-08-21T07:24:09;19.50;99.90
18446;DHT22;9352;50.888;4.466;2022-08-21T07:26:36;19.70;99.90
18446;DHT22;9352;50.888;4.466;2022-08-21T07:29:03;19.70;99.90
18446;DHT22;9352;50.888;4.466;2022-08-21T07:31:30;19.80;99.90
18446;DHT22;9352;50.888;4.466;2022-08-21T07:33:57;19.90;99.90
18446;DHT22;9352;50.888;4.466;2022-08-21T07:36:26;19.90;99.90
18446;DHT22;9352;50.888;4.466;2022-08-21T07:38:52;19.80;99.90
18446;DHT22;9352;50.888;4.466;2022-08-21T07:41:22;19.90;99.90
18446;DHT22;9352;50.888;4.466;2022-08-21T07:43:49;19.90;99.90
18446;DHT22;9352;50.888;4.466;2022-08-21T07:46:16;20.00;99.90
18446;DHT22;9352;50.888;4.466;2022-08-21T07:48:43;20.20;99.90
18446;DHT22;9352;50.888;4.466;2022-08-21T07:51:13;20.30;99.90
18446;DHT22;9352;50.888;4.466;2022-08-21T07:53:41;20.40;99.90
18446;DHT22;9352;50.888;4.466;2022-08-21T07:56:09;20.30;99.90
18446;DHT22;9352;50.888;4.466;2022-08-21T07:58:36;20.40;99.90
18446;DHT22;9352;50.888;4.466;2022-08-21T08:01:05;20.60;99.90
18446;DHT22;9352;50.888;4.466;2022-08-21T08:03:32;20.70;99.90
18446;DHT22;9352;50.888;4.466;2022-08-21T08:05:59;20.60;99.90
18446;DHT22;9352;50.888;4.466;2022-08-21T08:08:26;20.80;99.90
18446;DHT22;9352;50.888;4.466;2022-08-21T08:10:56;20.90;99.90
18446;DHT22;9352;50.888;4.466;2022-08-21T08:13:24;21.00;99.90
18446;DHT22;9352;50.888;4.466;2022-08-21T08:15:51;21.00;99.90
18446;DHT22;9352;50.888;4.466;2022-08-21T08:18:18;20.90;99.90
18446;DHT22;9352;50.888;4.466;2022-08-21T08:20:46;20.90;99.90
18446;DHT22;9352;50.888;4.466;2022-08-21T08:23:13;20.80;99.90
18446;DHT22;9352;50.888;4.466;2022-08-21T08:25:41;20.80;99.90
18446;DHT22;9352;50.888;4.466;2022-08-21T08:28:09;20.90;99.90
18446;DHT22;9352;50.888;4.466;2022-08-21T08:30:36;20.80;99.90
18446;DHT22;9352;50.888;4.466;2022-08-21T08:33:03;20.90;99.90
18446;DHT22;9352;50.888;4.466;2022-08-21T08:35:30;20.90;99.90
18446;DHT22;9352;50.888;4.466;2022-08-21T08:37:57;20.90;99.90
18446;DHT22;9352;50.888;4.466;2022-08-21T08:40:30;20.90;99.90
18446;DHT22;9352;50.888;4.466;2022-08-21T08:43:01;21.00;99.90
18446;DHT22;9352;50.888;4.466;2022-08-21T08:45:32;21.10;99.90
18446;DHT22;9352;50.888;4.466;2022-08-21T08:48:03;21.20;99.90
18446;DHT22;9352;50.888;4.466;2022-08-21T08:50:40;21.30;99.90
18446;DHT22;9352;50.888;4.466;2022-08-21T08:53:11;21.40;99.90
18446;DHT22;9352;50.888;4.466;2022-08-21T08:55:40;21.50;99.90
18446;DHT22;9352;50.888;4.466;2022-08-21T08:58:09;21.40;99.90
18446;DHT22;9352;50.888;4.466;2022-08-21T09:00:39;21.60;99.90
18446;DHT22;9352;50.888;4.466;2022-08-21T09:03:06;21.70;99.90
18446;DHT22;9352;50.888;4.466;2022-08-21T09:05:42;21.80;99.90
18446;DHT22;9352;50.888;4.466;2022-08-21T09:08:39;21.90;99.90
18446;DHT22;9352;50.888;4.466;2022-08-21T09:11:25;22.00;99.90
18446;DHT22;9352;50.888;4.466;2022-08-21T09:14:03;22.00;99.90
18446;DHT22;9352;50.888;4.466;2022-08-21T09:16:42;22.00;99.90
18446;DHT22;9352;50.888;4.466;2022-08-21T09:19:27;22.10;99.90
18446;DHT22;9352;50.888;4.466;2022-08-21T09:22:03;22.10;99.90
18446;DHT22;9352;50.888;4.466;2022-08-21T09:24:41;22.20;99.90
18446;DHT22;9352;50.888;4.466;2022-08-21T09:27:13;22.50;99.90
18446;DHT22;9352;50.888;4.466;2022-08-21T09:29:42;22.80;99.90
18446;DHT22;9352;50.888;4.466;2022-08-21T09:32:15;23.20;99.90
18446;DHT22;9352;50.888;4.466;2022-08-21T09:34:55;23.60;99.90
18446;DHT22;9352;50.888;4.466;2022-08-21T09:37:23;24.30;99.90
18446;DHT22;9352;50.888;4.466;2022-08-21T09:39:50;24.60;99.90
18446;DHT22;9352;50.888;4.466;2022-08-21T09:42:23;25.70;99.90
18446;DHT22;9352;50.888;4.466;2022-08-21T09:45:06;26.80;99.90
18446;DHT22;9352;50.888;4.466;2022-08-21T09:47:35;27.60;99.90
18446;DHT22;9352;50.888;4.466;2022-08-21T09:50:12;27.40;99.90
18446;DHT22;9352;50.888;4.466;2022-08-21T09:52:45;27.10;99.90
18446;DHT22;9352;50.888;4.466;2022-08-21T09:55:20;26.90;99.90
18446;DHT22;9352;50.888;4.466;2022-08-21T09:58:06;26.80;99.90
18446;DHT22;9352;50.888;4.466;2022-08-21T10:00:35;26.60;99.90
18446;DHT22;9352;50.888;4.466;2022-08-21T10:03:12;26.30;99.90
18446;DHT22;9352;50.888;4.466;2022-08-21T10:05:49;25.70;99.90
18446;DHT22;9352;50.888;4.466;2022-08-21T10:08:18;25.50;99.90
18446;DHT22;9352;50.888;4.466;2022-08-21T10:10:45;25.20;99.90
18446;DHT22;9352;50.888;4.466;2022-08-21T10:13:21;25.10;99.90
18446;DHT22;9352;50.888;4.466;2022-08-21T10:15:59;25.10;99.90
18446;DHT22;9352;50.888;4.466;2022-08-21T10:18:36;25.00;99.90
18446;DHT22;9352;50.888;4.466;2022-08-21T10:21:12;25.00;99.90
18446;DHT22;9352;50.888;4.466;2022-08-21T10:23:49;25.80;99.90
18446;DHT22;9352;50.888;4.466;2022-08-21T10:26:27;26.80;99.90
18446;DHT22;9352;50.888;4.466;2022-08-21T10:29:02;27.40;99.90
18446;DHT22;9352;50.888;4.466;2022-08-21T10:31:35;27.80;99.90
18446;DHT22;9352;50.888;4.466;2022-08-21T10:34:16;28.00;99.90
18446;DHT22;9352;50.888;4.466;2022-08-21T10:36:52;27.40;99.90
18446;DHT22;9352;50.888;4.466;2022-08-21T10:39:29;27.00;99.90
18446;DHT22;9352;50.888;4.466;2022-08-21T10:42:10;26.60;99.90
18446;DHT22;9352;50.888;4.466;2022-08-21T10:44:48;25.80;99.90
18446;DHT22;9352;50.888;4.466;2022-08-21T10:47:20;25.30;99.90
18446;DHT22;9352;50.888;4.466;2022-08-21T10:49:57;25.20;99.90
18446;DHT22;9352;50.888;4.466;2022-08-21T10:52:36;25.40;99.90
18446;DHT22;9352;50.888;4.466;2022-08-21T10:55:10;26.20;99.90
18446;DHT22;9352;50.888;4.466;2022-08-21T10:57:44;27.40;99.90
18446;DHT22;9352;50.888;4.466;2022-08-21T11:00:15;28.10;99.90
18446;DHT22;9352;50.888;4.466;2022-08-21T11:02:46;28.90;99.90
18446;DHT22;9352;50.888;4.466;2022-08-21T11:05:25;29.30;99.90
18446;DHT22;9352;50.888;4.466;2022-08-21T11:08:01;29.00;99.90
18446;DHT22;9352;50.888;4.466;2022-08-21T11:10:33;28.80;99.90
18446;DHT22;9352;50.888;4.466;2022-08-21T11:13:11;28.40;99.90
18446;DHT22;9352;50.888;4.466;2022-08-21T11:15:45;28.40;99.90
18446;DHT22;9352;50.888;4.466;2022-08-21T11:18:22;27.40;99.90
18446;DHT22;9352;50.888;4.466;2022-08-21T11:21:01;28.00;99.90
18446;DHT22;9352;50.888;4.466;2022-08-21T11:23:38;28.50;99.90
18446;DHT22;9352;50.888;4.466;2022-08-21T11:26:10;29.10;99.90
18446;DHT22;9352;50.888;4.466;2022-08-21T11:28:42;28.40;99.90
18446;DHT22;9352;50.888;4.466;2022-08-21T11:31:22;27.60;99.90
18446;DHT22;9352;50.888;4.466;2022-08-21T11:34:04;27.70;99.90
18446;DHT22;9352;50.888;4.466;2022-08-21T11:36:41;28.40;99.90
18446;DHT22;9352;50.888;4.466;2022-08-21T11:39:17;29.50;99.90
18446;DHT22;9352;50.888;4.466;2022-08-21T11:41:52;29.90;99.90
18446;DHT22;9352;50.888;4.466;2022-08-21T11:44:27;30.50;99.90
18446;DHT22;9352;50.888;4.466;2022-08-21T11:47:05;31.00;99.90
18446;DHT22;9352;50.888;4.466;2022-08-21T11:49:49;30.40;99.90
18446;DHT22;9352;50.888;4.466;2022-08-21T11:52:24;29.60;99.90
18446;DHT22;9352;50.888;4.466;2022-08-21T11:54:56;29.50;99.90
18446;DHT22;9352;50.888;4.466;2022-08-21T11:57:27;30.20;99.90
18446;DHT22;9352;50.888;4.466;2022-08-21T11:59:59;30.30;99.90
18446;DHT22;9352;50.888;4.466;2022-08-21T12:02:31;30.60;99.90
18446;DHT22;9352;50.888;4.466;2022-08-21T12:05:02;30.30;99.90
18446;DHT22;9352;50.888;4.466;2022-08-21T12:07:35;30.10;99.10
18446;DHT22;9352;50.888;4.466;2022-08-21T12:10:06;30.30;99.00
18446;DHT22;9352;50.888;4.466;2022-08-21T12:12:35;31.00;98.50
18446;DHT22;9352;50.888;4.466;2022-08-21T12:15:16;32.10;96.70
18446;DHT22;9352;50.888;4.466;2022-08-21T12:17:57;32.40;95.90
18446;DHT22;9352;50.888;4.466;2022-08-21T12:20:43;31.60;96.50
18446;DHT22;9352;50.888;4.466;2022-08-21T12:23:25;30.40;97.50
18446;DHT22;9352;50.888;4.466;2022-08-21T12:26:02;30.40;97.20
18446;DHT22;9352;50.888;4.466;2022-08-21T12:28:30;31.00;96.50
18446;DHT22;9352;50.888;4.466;2022-08-21T12:30:58;31.50;95.40
18446;DHT22;9352;50.888;4.466;2022-08-21T12:33:28;32.20;94.90
18446;DHT22;9352;50.888;4.466;2022-08-21T12:36:04;32.50;94.60
18446;DHT22;9352;50.888;4.466;2022-08-21T12:38:39;31.90;93.10
18446;DHT22;9352;50.888;4.466;2022-08-21T12:41:15;30.40;93.70
18446;DHT22;9352;50.888;4.466;2022-08-21T12:43:47;29.90;94.30
18446;DHT22;9352;50.888;4.466;2022-08-21T12:46:19;30.10;94.00
18446;DHT22;9352;50.888;4.466;2022-08-21T12:48:49;30.70;93.70
18446;DHT22;9352;50.888;4.466;2022-08-21T12:51:23;31.00;94.00
18446;DHT22;9352;50.888;4.466;2022-08-21T12:53:55;30.80;93.10
18446;DHT22;9352;50.888;4.466;2022-08-21T12:56:24;30.50;93.70
18446;DHT22;9352;50.888;4.466;2022-08-21T12:58:55;29.80;93.70
18446;DHT22;9352;50.888;4.466;2022-08-21T13:01:27;29.40;94.50
18446;DHT22;9352;50.888;4.466;2022-08-21T13:03:58;29.00;94.90
18446;DHT22;9352;50.888;4.466;2022-08-21T13:06:27;28.80;95.10
18446;DHT22;9352;50.888;4.466;2022-08-21T13:09:03;28.20;95.90
18446;DHT22;9352;50.888;4.466;2022-08-21T13:11:32;28.00;96.30
18446;DHT22;9352;50.888;4.466;2022-08-21T13:14:00;27.50;97.60
18446;DHT22;9352;50.888;4.466;2022-08-21T13:16:29;27.80;97.30
18446;DHT22;9352;50.888;4.466;2022-08-21T13:18:58;28.30;97.20
18446;DHT22;9352;50.888;4.466;2022-08-21T13:21:32;28.40;96.60
18446;DHT22;9352;50.888;4.466;2022-08-21T13:24:17;28.60;96.30
18446;DHT22;9352;50.888;4.466;2022-08-21T13:26:44;28.30;96.40
18446;DHT22;9352;50.888;4.466;2022-08-21T13:29:13;28.40;96.30
18446;DHT22;9352;50.888;4.466;2022-08-21T13:31:42;28.40;96.10
18446;DHT22;9352;50.888;4.466;2022-08-21T13:34:12;28.60;96.10
18446;DHT22;9352;50.888;4.466;2022-08-21T13:36:42;28.50;96.20
18446;DHT22;9352;50.888;4.466;2022-08-21T13:39:12;28.80;95.60
18446;DHT22;9352;50.888;4.466;2022-08-21T13:41:45;28.40;95.60
18446;DHT22;9352;50.888;4.466;2022-08-21T13:44:17;28.50;95.80
18446;DHT22;9352;50.888;4.466;2022-08-21T13:46:45;28.60;95.50
18446;DHT22;9352;50.888;4.466;2022-08-21T13:49:15;29.30;95.00
18446;DHT22;9352;50.888;4.466;2022-08-21T13:51:43;29.30;94.90
18446;DHT22;9352;50.888;4.466;2022-08-21T13:54:19;29.00;95.40
18446;DHT22;9352;50.888;4.466;2022-08-21T13:56:49;29.60;94.90
18446;DHT22;9352;50.888;4.466;2022-08-21T13:59:25;30.00;93.90
18446;DHT22;9352;50.888;4.466;2022-08-21T14:01:55;30.90;93.60
18446;DHT22;9352;50.888;4.466;2022-08-21T14:04:30;31.60;92.70
18446;DHT22;9352;50.888;4.466;2022-08-21T14:06:58;31.70;92.60
18446;DHT22;9352;50.888;4.466;2022-08-21T14:09:29;31.60;92.30
18446;DHT22;9352;50.888;4.466;2022-08-21T14:11:59;30.50;92.90
18446;DHT22;9352;50.888;4.466;2022-08-21T14:14:29;30.20;92.90
18446;DHT22;9352;50.888;4.466;2022-08-21T14:16:57;30.10;91.80
18446;DHT22;9352;50.888;4.466;2022-08-21T14:19:27;29.90;92.20
18446;DHT22;9352;50.888;4.466;2022-08-21T14:22:01;29.30;92.90
18446;DHT22;9352;50.888;4.466;2022-08-21T14:24:29;29.70;93.60
18446;DHT22;9352;50.888;4.466;2022-08-21T14:27:02;30.50;92.50
18446;DHT22;9352;50.888;4.466;2022-08-21T14:29:34;30.60;92.40
18446;DHT22;9352;50.888;4.466;2022-08-21T14:32:09;30.20;92.60
18446;DHT22;9352;50.888;4.466;2022-08-21T14:34:36;29.50;93.50
18446;DHT22;9352;50.888;4.466;2022-08-21T14:37:03;29.30;93.50
18446;DHT22;9352;50.888;4.466;2022-08-21T14:39:30;28.60;94.10
18446;DHT22;9352;50.888;4.466;2022-08-21T14:41:59;28.30;94.80
18446;DHT22;9352;50.888;4.466;2022-08-21T14:44:26;28.40;94.40
18446;DHT22;9352;50.888;4.466;2022-08-21T14:46:53;28.60;94.40
18446;DHT22;9352;50.888;4.466;2022-08-21T14:49:21;28.50;94.20
18446;DHT22;9352;50.888;4.466;2022-08-21T14:51:48;28.80;94.00
18446;DHT22;9352;50.888;4.466;2022-08-21T14:54:22;29.70;93.90
18446;DHT22;9352;50.888;4.466;2022-08-21T14:56:49;29.90;93.10
18446;DHT22;9352;50.888;4.466;2022-08-21T14:59:18;30.20;92.70
18446;DHT22;9352;50.888;4.466;2022-08-21T15:01:46;30.10;93.00
18446;DHT22;9352;50.888;4.466;2022-08-21T15:04:14;30.50;92.40
18446;DHT22;9352;50.888;4.466;2022-08-21T15:06:41;30.20;92.50
18446;DHT22;9352;50.888;4.466;2022-08-21T15:09:08;29.90;93.30
18446;DHT22;9352;50.888;4.466;2022-08-21T15:11:35;29.40;93.20
18446;DHT22;9352;50.888;4.466;2022-08-21T15:14:08;28.90;92.80
18446;DHT22;9352;50.888;4.466;2022-08-21T15:16:38;28.40;93.10
18446;DHT22;9352;50.888;4.466;2022-08-21T15:19:05;28.00;93.30
18446;DHT22;9352;50.888;4.466;2022-08-21T15:21:32;27.70;93.80
18446;DHT22;9352;50.888;4.466;2022-08-21T15:23:59;27.40;94.50
18446;DHT22;9352;50.888;4.466;2022-08-21T15:26:25;27.30;95.00
18446;DHT22;9352;50.888;4.466;2022-08-21T15:28:52;27.30;94.10
18446;DHT22;9352;50.888;4.466;2022-08-21T15:31:22;27.00;94.20
18446;DHT22;9352;50.888;4.466;2022-08-21T15:33:51;27.00;95.60
18446;DHT22;9352;50.888;4.466;2022-08-21T15:36:18;27.10;95.80
18446;DHT22;9352;50.888;4.466;2022-08-21T15:38:45;27.00;95.70
18446;DHT22;9352;50.888;4.466;2022-08-21T15:41:12;26.80;95.80
18446;DHT22;9352;50.888;4.466;2022-08-21T15:43:42;26.60;95.80
18446;DHT22;9352;50.888;4.466;2022-08-21T15:46:12;26.60;96.70
18446;DHT22;9352;50.888;4.466;2022-08-21T15:48:40;26.60;96.60
18446;DHT22;9352;50.888;4.466;2022-08-21T15:51:08;26.50;96.60
18446;DHT22;9352;50.888;4.466;2022-08-21T15:53:35;26.40;96.60
18446;DHT22;9352;50.888;4.466;2022-08-21T15:56:05;26.40;97.30
18446;DHT22;9352;50.888;4.466;2022-08-21T15:58:32;26.30;97.10
18446;DHT22;9352;50.888;4.466;2022-08-21T16:01:00;26.30;97.50